Knoxville, TN

4:17 AM EDT on July 24, 2016 (GMT -0400)
Echo Valley | | Change Station

Elev 896 ft 35.91 °N, 84.06 °W | Updated 13 seconds ago

Partly Cloudy
Partly Cloudy
71.2 °F
Feels Like 71.2 °F
N
0.0
Wind Variable Wind from South
Gusts 0.0 mph

Today
High -- | Low -- °F
--% Chance of Precip.
Yesterday
High -- | Low -- °F
Precip. -- in
Pressure 29.99 in
Visibility 10.0 miles
Clouds Few 20000 ft
Dew Point 71 °F
Humidity 98%
Rainfall 0.00 in
Snow Depth Not available.
6:38 AM 8:47 PM
Waning Gibbous, 78% visible
METAR KTYS 240753Z 00000KT 10SM FEW200 23/21 A3003 RMK AO2 SLP155 T02280206 $
Pressure 29.99 in
Visibility 10.0 miles
Clouds Few 20000 ft
Dew Point 71 °F
Humidity 98%
Rainfall 0.00 in
Snow Depth Not available.
6:38 AM 8:47 PM
Waning Gibbous, 78% visible
METAR KTYS 240753Z 00000KT 10SM FEW200 23/21 A3003 RMK AO2 SLP155 T02280206 $

10-Day Weather Forecast

Almanac

Astronomy

Jul. 24, 2016 Rise Set
Actual Time
Civil Twilight
Nautical Twilight
Astronomical Twilight
Moon
Length of Visible Light
Length of Day
Tomorrow will be .
, % of the Moon is Illuminated

Today's Extremes

State Highs State Lows

Community

WunderPhotos

Upload Photos

1,927,041 photos uploaded!

WunderBlog® & News

Nearby

Air Quality

  Air Quality AQ Index Pollutant
Not available.

Snow Depth

Station Depth Elevation

Earthquake Activity

City Distance Mag. Time & Date
Minimum magnitude displayed is 2.5.

Coastal Water Temperatures

Place Temperature

Stations

Nearby Weather Stations

Station Location Temp. Windchill Dew Point Humidity Wind Precip. Elev Updated Type
                   

Watches & Warnings

There are currently no watches in effect.